Time;durP1;ratioP1;P1;durP2;ratioP2;P2;SDS_P1;SDS_P2;PMS_P1;PMS_P2;Temp;Humidity;BMP_temperature;BMP_pressure;BME280_temperature;BME280_humidity;BME280_pressure;Samples;Min_cycle;Max_cycle;Signal;HPM_P1;HPM_P2
2021/09/29 00:01:13;;;;;;;2.47;2.27;;;19.20;90.70;;;;;;5040916;28;20225;-73
2021/09/29 00:03:40;;;;;;;3.57;3.23;;;19.10;90.70;;;;;;5045905;28;20224;-73
2021/09/29 00:06:07;;;;;;;2.17;1.97;;;19.10;90.70;;;;;;5045511;28;20605;-73
2021/09/29 00:08:34;;;;;;;5.30;2.50;;;19.10;90.70;;;;;;5030125;28;20215;-73
2021/09/29 00:11:01;;;;;;;3.83;3.10;;;19.00;90.70;;;;;;5045579;28;20276;-73
2021/09/29 00:13:29;;;;;;;2.50;2.23;;;19.00;90.70;;;;;;5044449;28;20610;-73
2021/09/29 00:15:56;;;;;;;1.43;0.97;;;19.00;90.70;;;;;;5042261;28;20297;-73
2021/09/29 00:18:24;;;;;;;2.13;1.43;;;18.90;90.90;;;;;;5025720;28;20224;-73
2021/09/29 00:20:51;;;;;;;1.97;1.87;;;18.90;90.60;;;;;;5035280;28;20700;-73
2021/09/29 00:23:19;;;;;;;3.70;2.33;;;18.90;90.60;;;;;;5036813;28;20530;-73
2021/09/29 00:25:46;;;;;;;1.53;1.43;;;18.80;90.60;;;;;;5042842;28;20226;-73
2021/09/29 00:28:13;;;;;;;3.63;2.50;;;18.80;90.80;;;;;;5045746;28;20614;-73
2021/09/29 00:30:50;;;;;;;4.03;2.00;;;18.70;90.60;;;;;;5034196;28;20214;-73
2021/09/29 00:33:19;;;;;;;3.23;3.03;;;18.70;90.60;;;;;;5017456;28;20229;-73
2021/09/29 00:35:46;;;;;;;2.30;1.87;;;18.70;90.70;;;;;;5027522;28;20230;-73
2021/09/29 00:38:14;;;;;;;3.00;2.20;;;18.70;90.80;;;;;;5043448;28;20560;-73
2021/09/29 00:40:41;;;;;;;3.97;1.23;;;18.60;90.80;;;;;;5044999;28;20677;-73
2021/09/29 00:43:08;;;;;;;1.83;1.63;;;18.60;90.90;;;;;;5046973;28;20215;-73
2021/09/29 00:45:35;;;;;;;7.60;3.40;;;18.50;90.90;;;;;;5028286;28;20272;-73
2021/09/29 00:48:02;;;;;;;4.80;3.37;;;18.50;91.30;;;;;;5045244;28;20249;-73
2021/09/29 00:50:29;;;;;;;15.47;5.20;;;18.50;91.20;;;;;;5045239;28;20210;-73
2021/09/29 00:52:58;;;;;;;3.27;2.93;;;18.60;91.30;;;;;;5044083;28;20273;-73
2021/09/29 00:55:25;;;;;;;8.27;1.93;;;18.60;91.30;;;;;;5043404;28;20239;-73
2021/09/29 00:57:52;;;;;;;4.80;4.47;;;18.60;91.40;;;;;;5045497;28;20280;-73
2021/09/29 01:00:19;;;;;;;7.00;1.70;;;18.70;91.40;;;;;;5041223;28;20296;-73
2021/09/29 01:02:47;;;;;;;3.47;3.00;;;18.70;91.40;;;;;;5041753;28;20215;-73
2021/09/29 01:05:25;;;;;;;3.93;2.47;;;18.70;91.30;;;;;;5033243;28;20211;-73
2021/09/29 01:08:02;;;;;;;2.57;2.37;;;18.70;91.20;;;;;;5044109;28;20215;-73
2021/09/29 01:10:44;;;;;;;3.77;2.70;;;18.70;91.20;;;;;;5043060;28;20548;-73
2021/09/29 01:14:04;;;;;;;6.93;2.93;;;18.70;91.30;;;;;;5045251;28;20222;-75
2021/09/29 01:16:35;;;;;;;2.73;2.53;;;18.70;91.30;;;;;;4996718;28;20226;-74
2021/09/29 01:19:03;;;;;;;3.20;3.00;;;18.60;91.20;;;;;;5035600;28;20562;-74
2021/09/29 01:21:44;;;;;;;2.47;2.27;;;18.60;91.30;;;;;;5042062;28;20222;-74
2021/09/29 01:24:19;;;;;;;4.53;2.77;;;18.60;91.30;;;;;;5032816;28;20226;-74
2021/09/29 01:26:47;;;;;;;3.50;2.47;;;18.60;91.30;;;;;;5045036;28;20588;-74
2021/09/29 01:29:19;;;;;;;1.70;1.33;;;18.60;91.40;;;;;;5035023;28;20224;-74
2021/09/29 01:31:46;;;;;;;5.37;3.37;;;18.50;91.30;;;;;;5040102;28;20541;-74
2021/09/29 01:34:14;;;;;;;1.90;1.80;;;18.50;91.30;;;;;;5034590;28;20225;-74
2021/09/29 01:36:43;;;;;;;13.83;2.17;;;18.50;91.20;;;;;;5042400;28;20225;-74
2021/09/29 01:39:11;;;;;;;2.87;2.47;;;18.40;91.20;;;;;;5044037;28;20214;-74
2021/09/29 01:41:40;;;;;;;1.47;1.37;;;18.30;91.20;;;;;;5041850;28;20218;-74
2021/09/29 01:44:08;;;;;;;9.03;5.57;;;18.30;91.20;;;;;;5024775;28;20612;-74
2021/09/29 01:46:36;;;;;;;8.40;2.77;;;18.30;91.20;;;;;;5043125;28;20225;-74
2021/09/29 01:49:35;;;;;;;2.00;1.90;;;18.20;91.30;;;;;;5042566;28;20215;-74
2021/09/29 01:52:05;;;;;;;1.80;1.73;;;18.20;91.30;;;;;;5040257;28;20268;-74
2021/09/29 01:54:41;;;;;;;2.57;2.37;;;18.10;91.30;;;;;;5042520;28;20234;-74
2021/09/29 01:57:10;;;;;;;1.90;1.60;;;18.10;91.30;;;;;;5032408;28;20214;-74
2021/09/29 01:59:38;;;;;;;1.63;1.53;;;18.10;91.30;;;;;;5041556;28;20218;-74
2021/09/29 02:02:06;;;;;;;13.93;3.53;;;18.10;91.30;;;;;;5029674;28;20218;-74
2021/09/29 02:04:33;;;;;;;3.77;2.17;;;18.10;91.30;;;;;;5044923;28;20211;-73
2021/09/29 02:07:00;;;;;;;6.00;4.23;;;18.10;91.30;;;;;;5023580;28;20207;-73
2021/09/29 02:09:28;;;;;;;1.63;1.40;;;18.20;91.40;;;;;;5047266;28;20275;-73
2021/09/29 02:11:56;;;;;;;7.80;2.13;;;18.20;91.30;;;;;;5047648;28;20245;-73
2021/09/29 02:14:24;;;;;;;3.13;2.93;;;18.20;91.30;;;;;;5046114;28;20294;-73
2021/09/29 02:16:53;;;;;;;1.60;1.50;;;18.20;91.40;;;;;;5044463;28;20546;-73
2021/09/29 02:19:22;;;;;;;2.63;2.33;;;18.20;91.30;;;;;;5030019;28;20221;-73
2021/09/29 02:21:51;;;;;;;6.27;3.83;;;18.30;91.30;;;;;;5046145;28;20618;-73
2021/09/29 02:24:18;;;;;;;4.30;2.33;;;18.30;91.30;;;;;;5050201;28;20222;-73
2021/09/29 02:26:45;;;;;;;7.97;3.80;;;18.30;91.30;;;;;;5055313;28;20210;-73
2021/09/29 02:29:14;;;;;;;5.33;2.97;;;18.30;91.30;;;;;;5057280;28;20240;-74
2021/09/29 02:31:41;;;;;;;5.97;3.37;;;18.30;91.30;;;;;;5040136;28;20225;-74
2021/09/29 02:34:08;;;;;;;4.93;2.50;;;18.30;91.30;;;;;;5039077;28;20541;-74
2021/09/29 02:36:36;;;;;;;11.57;2.53;;;18.30;91.40;;;;;;5039854;28;20237;-74
2021/09/29 02:39:04;;;;;;;3.03;2.53;;;18.30;91.40;;;;;;5055248;28;20212;-74
2021/09/29 02:41:32;;;;;;;2.93;2.40;;;18.30;91.40;;;;;;5052918;28;20289;-74
2021/09/29 02:43:59;;;;;;;1.83;1.70;;;18.30;91.60;;;;;;5053076;28;20221;-74
2021/09/29 02:46:26;;;;;;;3.67;2.23;;;18.30;91.30;;;;;;5052110;28;20214;-74
2021/09/29 02:48:53;;;;;;;2.10;1.90;;;18.30;91.30;;;;;;5053088;28;20205;-74
2021/09/29 02:51:20;;;;;;;3.53;2.57;;;18.30;91.40;;;;;;5052420;28;20210;-74
2021/09/29 02:53:47;;;;;;;1.47;1.30;;;18.20;91.40;;;;;;5053780;28;20268;-74
2021/09/29 02:56:14;;;;;;;5.20;2.83;;;18.20;91.40;;;;;;5052195;28;20229;-74
2021/09/29 02:58:41;;;;;;;7.93;3.33;;;18.20;91.40;;;;;;5035225;28;20229;-74
2021/09/29 03:01:08;;;;;;;2.47;2.27;;;18.20;91.40;;;;;;5052584;28;20214;-74
2021/09/29 03:03:35;;;;;;;2.00;1.90;;;18.20;91.30;;;;;;5054016;28;20507;-74
2021/09/29 03:06:02;;;;;;;7.47;3.43;;;18.10;91.30;;;;;;5052550;28;20610;-74
2021/09/29 03:08:29;;;;;;;6.57;3.07;;;18.10;91.30;;;;;;5035655;28;20210;-74
2021/09/29 03:10:56;;;;;;;3.60;2.23;;;18.10;91.30;;;;;;5034765;28;20280;-74
2021/09/29 03:13:24;;;;;;;1.70;1.60;;;18.10;91.40;;;;;;5052630;28;20566;-74
2021/09/29 03:15:51;;;;;;;1.33;1.23;;;18.10;91.30;;;;;;5051996;28;20580;-74
2021/09/29 03:18:18;;;;;;;5.27;2.03;;;18.10;91.40;;;;;;5035217;28;20580;-74
2021/09/29 03:20:45;;;;;;;1.57;1.47;;;18.10;91.40;;;;;;5051553;28;20215;-74
2021/09/29 03:23:13;;;;;;;1.90;1.80;;;18.10;91.50;;;;;;5054823;28;20248;-74
2021/09/29 03:25:40;;;;;;;1.97;1.87;;;18.10;91.50;;;;;;5055764;28;20214;-74
2021/09/29 03:28:07;;;;;;;3.57;3.10;;;18.10;91.50;;;;;;5056293;28;20613;-74
2021/09/29 03:30:35;;;;;;;3.77;3.33;;;18.20;91.60;;;;;;5055433;28;20221;-74
2021/09/29 03:33:06;;;;;;;6.03;3.60;;;18.20;91.60;;;;;;5038486;28;20222;-74
2021/09/29 03:35:36;;;;;;;3.23;2.27;;;18.20;91.60;;;;;;5038104;28;20230;-74
2021/09/29 03:38:04;;;;;;;4.77;2.93;;;18.20;91.60;;;;;;5055929;28;20206;-74
2021/09/29 03:40:31;;;;;;;4.33;3.80;;;18.20;91.60;;;;;;5034691;28;20639;-74
2021/09/29 03:42:58;;;;;;;1.30;1.30;;;18.20;91.60;;;;;;5040499;28;20210;-74
2021/09/29 03:45:25;;;;;;;2.40;0.93;;;18.20;91.70;;;;;;5040734;28;20214;-73
2021/09/29 03:47:52;;;;;;;2.93;2.50;;;18.20;91.70;;;;;;5055191;28;20246;-73
2021/09/29 03:50:20;;;;;;;1.03;0.80;;;18.10;91.70;;;;;;5037614;28;20218;-74
2021/09/29 03:52:47;;;;;;;2.00;1.63;;;18.10;91.80;;;;;;5038155;28;20215;-73
2021/09/29 03:55:15;;;;;;;6.03;2.90;;;18.10;91.80;;;;;;5038235;28;20242;-73
2021/09/29 03:57:41;;;;;;;1.53;1.40;;;18.10;91.80;;;;;;5055450;28;20207;-73
2021/09/29 04:00:12;;;;;;;3.37;1.50;;;18.10;91.90;;;;;;5055331;28;20642;-73
2021/09/29 04:02:40;;;;;;;3.40;2.90;;;18.10;92.00;;;;;;5054919;28;20217;-73
2021/09/29 04:05:09;;;;;;;1.20;1.20;;;18.10;92.00;;;;;;5055325;28;20213;-73
2021/09/29 04:07:37;;;;;;;1.13;1.07;;;18.00;92.10;;;;;;5037646;28;20213;-73
2021/09/29 04:10:05;;;;;;;2.53;2.37;;;18.00;92.10;;;;;;5055412;28;20206;-73
2021/09/29 04:12:32;;;;;;;1.40;1.13;;;17.90;92.40;;;;;;5055475;28;20213;-73
2021/09/29 04:14:59;;;;;;;1.93;1.83;;;17.90;92.20;;;;;;5055623;28;20292;-73
2021/09/29 04:17:26;;;;;;;3.10;2.73;;;17.90;92.30;;;;;;5037299;28;20637;-73
2021/09/29 04:19:53;;;;;;;1.70;1.10;;;17.90;92.30;;;;;;5055079;28;20202;-73
2021/09/29 04:22:21;;;;;;;1.93;1.27;;;17.90;92.40;;;;;;5054572;28;20217;-73
2021/09/29 04:24:49;;;;;;;3.60;3.03;;;17.90;92.40;;;;;;5055266;28;20296;-73
2021/09/29 04:27:16;;;;;;;10.10;2.23;;;17.90;92.30;;;;;;5036989;28;20210;-73
2021/09/29 04:29:43;;;;;;;3.33;2.60;;;17.90;92.30;;;;;;5054924;28;20222;-73
2021/09/29 04:32:11;;;;;;;3.50;3.20;;;17.90;92.30;;;;;;5054390;28;20697;-73
2021/09/29 04:34:38;;;;;;;5.00;3.07;;;17.90;92.30;;;;;;5036949;28;20284;-74
2021/09/29 04:37:06;;;;;;;2.00;1.90;;;17.90;92.30;;;;;;5051210;28;20688;-74
2021/09/29 04:39:35;;;;;;;5.10;2.50;;;17.90;92.30;;;;;;5054534;28;20211;-74
2021/09/29 04:42:02;;;;;;;2.67;2.47;;;17.90;92.30;;;;;;5051104;28;20268;-74
2021/09/29 04:44:29;;;;;;;2.43;2.17;;;17.90;92.30;;;;;;5054846;28;20462;-74
2021/09/29 04:46:56;;;;;;;4.83;1.67;;;17.90;92.30;;;;;;5054531;28;20250;-74
2021/09/29 04:49:23;;;;;;;7.47;4.63;;;17.90;92.30;;;;;;5054824;28;20218;-74
2021/09/29 04:51:50;;;;;;;2.80;2.57;;;17.90;92.30;;;;;;5055053;28;20202;-74
2021/09/29 04:54:17;;;;;;;2.37;2.13;;;17.90;92.20;;;;;;5037899;28;20218;-74
2021/09/29 04:56:45;;;;;;;2.93;2.07;;;17.90;92.20;;;;;;5037507;28;20233;-74
2021/09/29 04:59:12;;;;;;;2.67;2.47;;;17.80;92.20;;;;;;5037441;28;20214;-73
2021/09/29 05:01:40;;;;;;;1.63;1.53;;;17.80;92.30;;;;;;5036457;28;20624;-73
2021/09/29 05:04:08;;;;;;;2.03;1.87;;;17.70;92.30;;;;;;5036713;28;20272;-73
2021/09/29 05:06:36;;;;;;;3.10;2.43;;;17.70;92.40;;;;;;5053956;28;20562;-73
2021/09/29 05:09:04;;;;;;;4.70;1.90;;;17.70;92.40;;;;;;5036343;28;20517;-73
2021/09/29 05:11:46;;;;;;;1.13;1.13;;;17.70;92.40;;;;;;5053628;28;20220;-73
2021/09/29 05:14:13;;;;;;;2.27;2.10;;;17.70;92.50;;;;;;5038525;28;20594;-73
2021/09/29 05:16:40;;;;;;;2.43;2.03;;;17.60;92.50;;;;;;5032255;28;20245;-73
2021/09/29 05:19:08;;;;;;;2.20;2.10;;;17.60;92.40;;;;;;5036517;28;20321;-73
2021/09/29 05:21:35;;;;;;;2.03;1.67;;;17.60;92.40;;;;;;5053917;28;20264;-73
2021/09/29 05:24:02;;;;;;;4.80;3.53;;;17.60;92.40;;;;;;5037174;28;20210;-73
2021/09/29 05:26:29;;;;;;;3.50;2.47;;;17.50;92.50;;;;;;5053755;28;20218;-73
2021/09/29 05:28:57;;;;;;;1.97;1.73;;;17.40;92.50;;;;;;5036278;28;20209;-73
2021/09/29 05:31:24;;;;;;;2.60;2.33;;;17.50;92.60;;;;;;5053629;28;20272;-73
2021/09/29 05:33:51;;;;;;;2.40;1.00;;;17.50;92.60;;;;;;5036502;28;20602;-73
2021/09/29 05:36:18;;;;;;;1.77;1.63;;;17.50;92.60;;;;;;5053945;28;20231;-73
2021/09/29 05:38:45;;;;;;;1.50;1.40;;;17.50;92.60;;;;;;5053940;28;20213;-73
2021/09/29 05:41:13;;;;;;;0.73;0.73;;;17.50;92.60;;;;;;5036122;28;20206;-73
2021/09/29 05:43:40;;;;;;;2.13;1.93;;;17.60;92.60;;;;;;5036138;28;20351;-73
2021/09/29 05:46:07;;;;;;;4.37;2.90;;;17.50;92.60;;;;;;5053510;28;20215;-73
2021/09/29 05:48:35;;;;;;;1.83;1.37;;;17.50;92.60;;;;;;5027956;28;20230;-73
2021/09/29 05:51:02;;;;;;;1.93;1.80;;;17.50;92.60;;;;;;5032834;28;20210;-73
2021/09/29 05:53:33;;;;;;;4.20;2.03;;;17.60;92.60;;;;;;5033477;28;20214;-73
2021/09/29 05:56:00;;;;;;;4.53;1.80;;;17.60;92.60;;;;;;5031849;28;20227;-73
2021/09/29 05:58:27;;;;;;;1.63;1.53;;;17.60;92.60;;;;;;5034523;28;20211;-73
2021/09/29 06:00:54;;;;;;;4.00;2.73;;;17.60;92.50;;;;;;5034201;28;20207;-74
2021/09/29 06:03:22;;;;;;;1.97;0.93;;;17.70;92.50;;;;;;5032772;28;20563;-74
2021/09/29 06:05:49;;;;;;;2.60;2.03;;;17.60;92.50;;;;;;5043872;28;20214;-74
2021/09/29 06:08:17;;;;;;;4.33;2.83;;;17.60;92.50;;;;;;5041291;28;20211;-73
2021/09/29 06:10:45;;;;;;;1.00;0.97;;;17.60;92.60;;;;;;5043236;28;20218;-73
2021/09/29 06:13:12;;;;;;;5.17;3.13;;;17.60;92.50;;;;;;5041989;28;20225;-73
2021/09/29 06:15:42;;;;;;;3.77;2.17;;;17.60;92.50;;;;;;5039102;28;20223;-74
2021/09/29 06:18:15;;;;;;;1.13;1.13;;;17.60;92.60;;;;;;5044608;28;20218;-74
2021/09/29 06:20:48;;;;;;;4.60;1.93;;;17.60;92.70;;;;;;5041354;28;20226;-74
2021/09/29 06:23:16;;;;;;;1.57;1.47;;;17.70;92.70;;;;;;5032560;28;20221;-74
2021/09/29 06:25:44;;;;;;;1.33;1.23;;;17.80;92.60;;;;;;5043361;28;20672;-74
2021/09/29 06:28:11;;;;;;;5.03;1.90;;;17.90;92.50;;;;;;5043819;28;20223;-73
2021/09/29 06:30:39;;;;;;;2.00;1.47;;;17.90;92.40;;;;;;5043170;28;20226;-74
2021/09/29 06:33:06;;;;;;;1.00;1.00;;;18.00;92.30;;;;;;5041901;28;20268;-74
2021/09/29 06:35:33;;;;;;;1.50;1.47;;;18.10;92.20;;;;;;5041711;28;20206;-74
2021/09/29 06:38:01;;;;;;;1.00;1.00;;;18.20;92.20;;;;;;5033826;28;20222;-74
2021/09/29 06:40:28;;;;;;;4.77;2.13;;;18.30;92.20;;;;;;5040892;28;20214;-74
2021/09/29 06:42:56;;;;;;;4.73;1.63;;;18.40;91.90;;;;;;5031856;28;20217;-74
2021/09/29 06:45:23;;;;;;;3.13;2.23;;;18.50;91.70;;;;;;5031760;28;20218;-74
2021/09/29 06:47:50;;;;;;;0.60;0.60;;;18.50;91.60;;;;;;5041879;28;20249;-74
2021/09/29 06:50:19;;;;;;;8.73;2.90;;;18.60;91.50;;;;;;5024283;28;20549;-74
2021/09/29 06:52:54;;;;;;;2.90;2.00;;;18.70;91.40;;;;;;5040812;28;20305;-74
2021/09/29 06:55:21;;;;;;;1.37;1.37;;;18.80;91.30;;;;;;5042472;28;20210;-74
2021/09/29 06:57:48;;;;;;;4.70;1.27;;;18.90;91.30;;;;;;5037310;28;20591;-74
2021/09/29 07:00:15;;;;;;;1.97;1.50;;;19.00;91.20;;;;;;5031930;28;20227;-74
2021/09/29 07:02:45;;;;;;;2.13;2.03;;;19.10;91.10;;;;;;5022150;28;20222;-74
2021/09/29 07:05:14;;;;;;;1.47;1.33;;;19.20;91.00;;;;;;5034483;28;20284;-74
2021/09/29 07:07:42;;;;;;;6.30;2.00;;;19.30;90.90;;;;;;5045391;28;20276;-74
2021/09/29 07:10:10;;;;;;;2.50;2.07;;;19.30;90.70;;;;;;5035513;28;20218;-74
2021/09/29 07:12:39;;;;;;;0.83;0.83;;;19.40;90.70;;;;;;5037635;28;20214;-74
2021/09/29 07:15:06;;;;;;;2.87;2.13;;;19.50;90.70;;;;;;5046705;28;20564;-74
2021/09/29 07:17:34;;;;;;;6.90;2.60;;;19.50;90.60;;;;;;5044374;28;20248;-74
2021/09/29 07:20:03;;;;;;;2.80;2.27;;;19.60;90.50;;;;;;5046918;28;20611;-74
2021/09/29 07:22:31;;;;;;;4.70;3.50;;;19.70;90.40;;;;;;5037724;28;20272;-74
2021/09/29 07:24:58;;;;;;;1.87;1.73;;;19.80;90.30;;;;;;5027456;28;20515;-74
2021/09/29 07:27:25;;;;;;;1.40;1.17;;;19.90;90.20;;;;;;5047538;28;20214;-73
2021/09/29 07:29:52;;;;;;;2.30;2.07;;;20.00;90.00;;;;;;5021180;28;20218;-73
2021/09/29 07:32:20;;;;;;;1.80;1.70;;;20.20;90.00;;;;;;5044491;28;20612;-73
2021/09/29 07:34:47;;;;;;;5.37;3.53;;;20.30;89.40;;;;;;5046030;28;20210;-73
2021/09/29 07:37:14;;;;;;;3.00;2.53;;;20.40;88.80;;;;;;5044489;28;20649;-75
2021/09/29 07:39:42;;;;;;;1.23;1.23;;;20.60;88.70;;;;;;5038762;28;20223;-74
2021/09/29 07:42:09;;;;;;;5.50;2.87;;;20.80;88.40;;;;;;5043568;28;20265;-74
2021/09/29 07:44:36;;;;;;;3.50;2.30;;;21.00;88.10;;;;;;5048682;28;20210;-73
2021/09/29 07:47:03;;;;;;;2.80;2.27;;;21.20;87.50;;;;;;5042388;28;20258;-74
2021/09/29 07:49:31;;;;;;;1.93;1.83;;;21.50;86.80;;;;;;5027946;28;20222;-74
2021/09/29 07:51:58;;;;;;;2.73;2.10;;;21.80;86.00;;;;;;5037618;28;20670;-74
2021/09/29 07:54:26;;;;;;;2.47;2.27;;;21.90;85.20;;;;;;5043836;28;20281;-74
2021/09/29 07:56:54;;;;;;;8.23;4.53;;;22.10;84.70;;;;;;5026763;28;20235;-74
2021/09/29 07:59:23;;;;;;;5.67;4.70;;;22.30;84.10;;;;;;5045888;28;20211;-74
2021/09/29 08:01:50;;;;;;;2.93;1.60;;;22.50;83.60;;;;;;5047224;28;20642;-74
2021/09/29 08:04:21;;;;;;;4.83;3.20;;;22.70;82.80;;;;;;5042945;28;20211;-74
2021/09/29 08:06:49;;;;;;;4.13;3.20;;;22.90;82.10;;;;;;5039275;28;20215;-75
2021/09/29 08:09:17;;;;;;;4.60;4.13;;;23.10;81.40;;;;;;5045103;28;20214;-74
2021/09/29 08:11:45;;;;;;;2.13;1.87;;;23.30;80.80;;;;;;5044563;28;20492;-74
2021/09/29 08:14:13;;;;;;;2.87;2.43;;;23.50;80.40;;;;;;5044104;28;20232;-74
2021/09/29 08:16:40;;;;;;;7.67;4.90;;;23.70;79.60;;;;;;5042354;28;20227;-74
2021/09/29 08:19:07;;;;;;;4.77;4.37;;;23.80;79.10;;;;;;5035164;28;20696;-74
2021/09/29 08:21:35;;;;;;;2.67;2.37;;;23.90;78.60;;;;;;5047290;28;20214;-74
2021/09/29 08:24:39;;;;;;;5.93;5.40;;;24.00;78.10;;;;;;5035775;28;20268;-75
2021/09/29 08:27:10;;;;;;;3.00;2.80;;;24.10;77.70;;;;;;5041757;28;20222;-74
2021/09/29 08:44:51;;;;;;;11.37;3.97;;;24.70;74.90;;;;;;5042738;28;20211;-76
2021/09/29 08:47:25;;;;;;;7.93;5.03;;;24.80;74.90;;;;;;5042136;28;20249;-75
2021/09/29 08:55:49;;;;;;;9.30;7.07;;;25.00;73.90;;;;;;5022454;28;20218;-73
2021/09/29 09:17:38;;;;;;;6.03;5.53;;;25.60;71.30;;;;;;5041741;28;20238;-74
2021/09/29 09:20:24;;;;;;;7.37;6.47;;;25.60;71.10;;;;;;5041397;28;20215;-74
2021/09/29 09:22:57;;;;;;;8.30;5.97;;;25.70;70.40;;;;;;5043926;28;20590;-74
2021/09/29 09:25:31;;;;;;;9.57;5.60;;;25.70;70.40;;;;;;5035949;28;20213;-76
2021/09/29 09:27:58;;;;;;;4.27;3.90;;;25.80;70.30;;;;;;5042939;28;20720;-75
2021/09/29 09:30:36;;;;;;;6.73;6.07;;;25.90;69.80;;;;;;5043479;28;20585;-74
2021/09/29 09:33:04;;;;;;;5.97;5.40;;;26.00;69.10;;;;;;5033580;28;20210;-75
2021/09/29 09:35:46;;;;;;;6.20;4.07;;;26.00;69.10;;;;;;5020011;28;20560;-74
2021/09/29 09:38:19;;;;;;;10.57;7.20;;;25.90;69.00;;;;;;5023749;28;20238;-73
2021/09/29 09:40:58;;;;;;;6.87;6.00;;;26.00;69.20;;;;;;5063440;28;20945;-74
2021/09/29 09:43:29;;;;;;;11.63;6.70;;;26.00;68.90;;;;;;5065315;28;20232;-73
2021/09/29 09:45:57;;;;;;;8.17;5.00;;;26.00;68.50;;;;;;5062236;28;20210;-74
2021/09/29 09:48:26;;;;;;;6.03;4.30;;;26.00;68.70;;;;;;5059120;28;20283;-73
2021/09/29 09:51:07;;;;;;;7.30;6.43;;;26.00;67.90;;;;;;5060047;28;20649;-73
2021/09/29 09:53:35;;;;;;;6.97;4.20;;;25.80;67.50;;;;;;5059372;28;20279;-75
2021/09/29 09:56:21;;;;;;;8.13;6.93;;;25.60;68.10;;;;;;5059538;28;20224;-74
2021/09/29 09:58:50;;;;;;;14.50;4.93;;;25.50;68.50;;;;;;5059452;28;20308;-73
2021/09/29 10:01:19;;;;;;;7.63;5.67;;;25.40;68.30;;;;;;5059191;28;20645;-74
2021/09/29 10:03:47;;;;;;;7.67;4.80;;;25.40;68.60;;;;;;5060595;28;20289;-74
2021/09/29 10:06:16;;;;;;;7.80;4.87;;;25.60;68.80;;;;;;5053531;28;20655;-74
2021/09/29 10:08:49;;;;;;;8.20;5.20;;;25.70;68.50;;;;;;5060387;28;20626;-74
2021/09/29 10:28:07;;;;;;;9.53;5.90;;;26.20;67.90;;;;;;5057607;28;20210;-75
2021/09/29 10:31:03;;;;;;;5.13;4.73;;;26.40;67.50;;;;;;5059003;28;20224;-75
2021/09/29 10:33:30;;;;;;;6.83;5.40;;;26.60;66.90;;;;;;5059299;28;20222;-74
2021/09/29 10:45:20;;;;;;;10.63;9.53;;;27.10;64.70;;;;;;5059149;28;20264;-73
2021/09/29 11:29:30;;;;;;;7.43;3.77;;;27.90;59.30;;;;;;5045288;28;20459;-74
2021/09/29 11:32:01;;;;;;;10.87;6.53;;;28.00;58.60;;;;;;5045652;28;20215;-74
2021/09/29 11:34:31;;;;;;;12.63;6.57;;;27.90;57.10;;;;;;5044059;28;20214;-74
2021/09/29 12:10:31;;;;;;;4.73;3.40;;;28.60;56.00;;;;;;5044349;28;20219;-74
2021/09/29 12:13:04;;;;;;;7.03;4.20;;;28.60;55.90;;;;;;5042165;28;20665;-73
2021/09/29 12:15:42;;;;;;;1.80;0.80;;;28.60;55.20;;;;;;5043806;28;20302;-74
2021/09/29 12:18:13;;;;;;;6.70;4.80;;;28.70;54.50;;;;;;5042340;28;20215;-74
2021/09/29 12:20:58;;;;;;;22.13;4.90;;;28.70;53.50;;;;;;5044092;28;20234;-73
2021/09/29 12:23:25;;;;;;;5.40;4.37;;;28.70;54.20;;;;;;5045705;28;20559;-74
2021/09/29 12:25:55;;;;;;;2.43;2.23;;;28.60;54.50;;;;;;5041557;28;20241;-73
2021/09/29 12:36:30;;;;;;;5.93;5.40;;;28.50;54.50;;;;;;5041364;28;20211;-73
2021/09/29 12:38:57;;;;;;;3.37;3.13;;;28.70;54.90;;;;;;5043257;28;20249;-73
2021/09/29 12:41:28;;;;;;;3.43;3.13;;;28.70;55.00;;;;;;5043351;28;20239;-73
2021/09/29 12:44:08;;;;;;;4.83;3.43;;;28.80;55.10;;;;;;5042950;28;20214;-73
2021/09/29 12:46:35;;;;;;;3.77;3.00;;;28.80;55.00;;;;;;5043824;28;20217;-73
2021/09/29 12:49:10;;;;;;;5.00;3.93;;;28.90;55.00;;;;;;5041293;28;20226;-73
2021/09/29 12:54:48;;;;;;;3.10;2.87;;;28.80;54.20;;;;;;5044208;28;20210;-73
2021/09/29 12:57:16;;;;;;;3.23;1.97;;;28.80;54.10;;;;;;5041404;28;20284;-73
2021/09/29 12:59:44;;;;;;;3.23;2.63;;;28.70;53.20;;;;;;5043496;28;20561;-73
2021/09/29 13:02:10;;;;;;;4.60;2.77;;;28.60;52.00;;;;;;5042881;28;20279;-74
2021/09/29 13:04:38;;;;;;;9.83;2.47;;;28.50;52.20;;;;;;5042659;28;20215;-73
2021/09/29 13:07:05;;;;;;;2.30;2.10;;;28.40;52.40;;;;;;5040635;28;20222;-73
2021/09/29 13:09:32;;;;;;;2.50;2.00;;;28.40;53.00;;;;;;5041438;28;20214;-73
2021/09/29 13:11:59;;;;;;;6.07;3.17;;;28.40;53.30;;;;;;5038330;28;20226;-73
2021/09/29 13:14:26;;;;;;;2.80;2.23;;;28.50;53.70;;;;;;5042727;28;20213;-73
2021/09/29 13:16:53;;;;;;;4.47;2.80;;;28.50;53.90;;;;;;5041405;28;20210;-73
2021/09/29 13:20:05;;;;;;;5.73;3.20;;;28.50;53.70;;;;;;5041287;28;20215;-73
2021/09/29 13:22:23;;;;;;;2.23;2.13;;;28.60;53.80;;;;;;5042905;28;20234;-73
2021/09/29 13:38:29;;;;;;;2.30;2.10;;;28.20;52.80;;;;;;5041729;28;20214;-73
2021/09/29 13:40:56;;;;;;;2.07;1.90;;;28.20;53.20;;;;;;5043499;28;20226;-74
2021/09/29 13:43:23;;;;;;;3.03;2.23;;;28.20;53.00;;;;;;5041576;28;20234;-73
2021/09/29 13:45:53;;;;;;;2.33;2.17;;;28.20;52.80;;;;;;5042249;28;20287;-73
2021/09/29 13:48:20;;;;;;;2.70;1.87;;;28.20;52.20;;;;;;5037434;23;20339;-73
2021/09/29 13:50:47;;;;;;;2.97;1.97;;;28.20;52.60;;;;;;5010574;28;20223;-73
2021/09/29 13:53:14;;;;;;;2.17;2.03;;;28.20;52.50;;;;;;4998240;28;20298;-73
2021/09/29 13:55:44;;;;;;;1.47;0.97;;;28.20;51.50;;;;;;5019824;28;20558;-73
2021/09/29 14:30:52;;;;;;;7.07;2.70;;;28.00;53.00;;;;;;5004735;28;20252;-74
2021/09/29 14:33:26;;;;;;;1.60;1.40;;;27.90;52.90;;;;;;5008201;28;20224;-73
2021/09/29 14:35:53;;;;;;;4.90;2.87;;;27.90;53.00;;;;;;5004945;28;20706;-73
2021/09/29 14:38:20;;;;;;;1.53;1.40;;;27.90;52.80;;;;;;5006806;28;20262;-73
2021/09/29 14:40:50;;;;;;;4.13;2.63;;;27.80;52.90;;;;;;5005714;28;20604;-74
2021/09/29 14:43:17;;;;;;;5.03;2.90;;;27.80;53.10;;;;;;5003982;28;20219;-73
2021/09/29 14:45:45;;;;;;;1.73;1.60;;;27.80;53.40;;;;;;5003563;28;20217;-74
2021/09/29 14:48:12;;;;;;;4.63;2.23;;;27.80;53.60;;;;;;5007607;28;20489;-73
2021/09/29 14:50:43;;;;;;;3.90;2.57;;;27.70;53.30;;;;;;5022750;28;20706;-73
2021/09/29 14:53:09;;;;;;;4.17;2.10;;;27.60;53.50;;;;;;5004884;28;20290;-73
2021/09/29 14:55:36;;;;;;;1.53;1.43;;;27.50;54.10;;;;;;5021701;28;20302;-72
2021/09/29 14:58:04;;;;;;;6.93;1.87;;;27.40;54.50;;;;;;5012799;28;20224;-72
2021/09/29 15:00:32;;;;;;;1.70;1.63;;;27.30;54.50;;;;;;5006616;28;20274;-72
2021/09/29 15:03:00;;;;;;;2.87;2.07;;;27.20;54.50;;;;;;5004781;28;20348;-72
2021/09/29 15:05:28;;;;;;;1.53;1.43;;;27.10;54.80;;;;;;5006684;28;20215;-72
2021/09/29 15:07:55;;;;;;;2.53;2.30;;;27.10;55.20;;;;;;5003742;28;20224;-72
2021/09/29 15:10:22;;;;;;;2.60;2.03;;;27.00;55.40;;;;;;4995544;28;20659;-73
2021/09/29 15:12:50;;;;;;;3.93;2.20;;;27.00;55.60;;;;;;5018877;28;20554;-72
2021/09/29 15:17:57;;;;;;;2.43;2.23;;;27.00;55.90;;;;;;5003507;28;20239;-72
2021/09/29 15:50:29;;;;;;;1.23;1.13;;;26.30;57.00;;;;;;5002772;28;20216;-72
2021/09/29 15:55:41;;;;;;;2.10;1.67;;;26.00;57.30;;;;;;5003959;28;20501;-73
2021/09/29 15:58:38;;;;;;;2.73;2.07;;;25.90;57.50;;;;;;5004441;28;20209;-73
2021/09/29 16:01:09;;;;;;;2.80;2.43;;;25.80;57.70;;;;;;5002829;28;20275;-72
2021/09/29 16:08:40;;;;;;;2.50;2.30;;;25.60;58.00;;;;;;5002922;28;20213;-73
2021/09/29 16:32:20;;;;;;;1.20;1.10;;;25.30;59.80;;;;;;5002447;28;20652;-74
2021/09/29 16:34:59;;;;;;;1.23;1.13;;;25.30;60.00;;;;;;5010714;28;20234;-73
2021/09/29 16:37:30;;;;;;;6.00;3.10;;;25.20;60.10;;;;;;5017810;28;20569;-72
2021/09/29 16:39:58;;;;;;;1.17;1.07;;;25.10;60.40;;;;;;5019459;28;20215;-73
2021/09/29 16:42:26;;;;;;;1.50;1.40;;;25.10;60.70;;;;;;5002078;28;20244;-73
2021/09/29 16:44:53;;;;;;;1.30;1.20;;;25.00;61.60;;;;;;5001247;28;20726;-73
2021/09/29 16:47:20;;;;;;;6.03;2.53;;;25.00;61.20;;;;;;5001924;28;20223;-72
2021/09/29 16:49:47;;;;;;;1.60;1.10;;;24.90;61.40;;;;;;5008277;28;20259;-72
2021/09/29 16:52:28;;;;;;;2.20;1.97;;;24.90;61.60;;;;;;5020685;28;20246;-73
2021/09/29 16:54:58;;;;;;;2.23;2.03;;;24.80;62.00;;;;;;5004223;28;20220;-73
2021/09/29 16:57:32;;;;;;;3.70;1.90;;;24.80;62.40;;;;;;5004975;28;20589;-72
2021/09/29 17:02:29;;;;;;;2.03;1.83;;;24.60;63.00;;;;;;5005154;28;20314;-72
2021/09/29 17:04:56;;;;;;;3.27;1.83;;;24.50;63.20;;;;;;5005796;28;20307;-72
2021/09/29 17:07:24;;;;;;;4.40;1.63;;;24.50;63.50;;;;;;5003399;28;20208;-73
2021/09/29 17:09:51;;;;;;;1.77;1.67;;;24.50;63.90;;;;;;5003778;28;20212;-73
2021/09/29 17:12:18;;;;;;;6.43;3.10;;;24.30;64.20;;;;;;5019579;28;20419;-73
2021/09/29 17:14:45;;;;;;;3.63;1.60;;;24.30;64.50;;;;;;5002324;28;20235;-73
2021/09/29 17:17:12;;;;;;;4.10;2.10;;;24.20;64.70;;;;;;5016544;28;20219;-73
2021/09/29 17:19:39;;;;;;;1.63;1.53;;;24.20;65.00;;;;;;4994211;28;20728;-73